createdAt,value
2023-12-31T00:02:22.103Z,9.99
2023-12-31T00:05:27.379Z,9.93
2023-12-31T00:08:30.573Z,9.98
2023-12-31T00:11:33.875Z,9.53
2023-12-31T00:14:39.495Z,9.43
2023-12-31T00:17:42.766Z,9.43
2023-12-31T00:20:46.067Z,9.34
2023-12-31T00:23:51.323Z,9.34
2023-12-31T00:26:54.608Z,9.08
2023-12-31T00:29:57.904Z,8.91
2023-12-31T00:33:01.367Z,8.70
2023-12-31T00:36:04.944Z,8.70
2023-12-31T00:39:08.236Z,8.45
2023-12-31T00:42:11.407Z,8.39
2023-12-31T00:45:14.690Z,8.49
2023-12-31T00:48:17.972Z,8.48
2023-12-31T00:51:21.259Z,8.29
2023-12-31T00:54:24.380Z,8.11
2023-12-31T00:57:27.892Z,8.12
2023-12-31T01:00:31.083Z,8.07
2023-12-31T01:03:35.875Z,7.88
2023-12-31T01:06:41.195Z,7.72
2023-12-31T01:09:44.611Z,7.88
2023-12-31T01:12:47.786Z,7.79
2023-12-31T01:15:52.403Z,7.61
2023-12-31T01:18:55.788Z,7.50
2023-12-31T01:21:59.170Z,7.39
2023-12-31T01:25:02.354Z,7.12
2023-12-31T01:28:06.006Z,7.25
2023-12-31T01:31:09.379Z,7.04
2023-12-31T01:34:12.740Z,6.98
2023-12-31T01:37:16.108Z,7.06
2023-12-31T01:40:19.395Z,7.05
2023-12-31T01:43:24.128Z,6.85
2023-12-31T01:46:30.310Z,6.78
2023-12-31T01:49:34.738Z,6.89
2023-12-31T01:52:38.590Z,6.70
2023-12-31T01:55:41.970Z,6.69
2023-12-31T01:58:45.458Z,6.66
2023-12-31T02:01:56.306Z,6.58
2023-12-31T02:05:01.098Z,6.32
2023-12-31T02:08:04.608Z,6.44
2023-12-31T02:11:08.943Z,6.46
2023-12-31T02:14:12.130Z,6.32
2023-12-31T02:17:15.507Z,6.28
2023-12-31T02:20:18.768Z,6.32
2023-12-31T02:23:22.071Z,6.23
2023-12-31T02:26:27.339Z,6.02
2023-12-31T02:29:34.353Z,6.20
2023-12-31T02:32:37.785Z,6.06
2023-12-31T02:35:42.546Z,5.95
2023-12-31T02:38:45.777Z,5.96
2023-12-31T02:41:49.024Z,5.68
2023-12-31T02:44:52.441Z,5.72
2023-12-31T02:47:55.810Z,5.75
2023-12-31T02:51:01.706Z,5.47
2023-12-31T02:54:05.397Z,5.60
2023-12-31T02:57:08.751Z,5.52
2023-12-31T03:00:12.468Z,5.74
2023-12-31T03:03:15.728Z,5.57
2023-12-31T03:06:19.971Z,5.44
2023-12-31T03:09:23.196Z,5.29
2023-12-31T03:12:26.561Z,5.19
2023-12-31T03:15:30.129Z,5.12
2023-12-31T03:18:34.061Z,5.13
2023-12-31T03:21:39.432Z,5.18
2023-12-31T03:24:45.823Z,5.11
2023-12-31T03:27:48.980Z,4.82
2023-12-31T03:30:52.259Z,4.87
2023-12-31T03:33:57.878Z,5.07
2023-12-31T03:37:00.984Z,5.24
2023-12-31T03:40:04.381Z,5.18
2023-12-31T03:43:07.676Z,4.81
2023-12-31T03:46:10.901Z,4.57
2023-12-31T03:49:16.190Z,4.69
2023-12-31T03:52:21.506Z,4.53
2023-12-31T03:55:25.214Z,4.18
2023-12-31T03:58:28.502Z,4.37
2023-12-31T04:01:31.762Z,4.45
2023-12-31T04:04:35.058Z,4.28
2023-12-31T04:07:38.408Z,4.43
2023-12-31T04:10:44.052Z,4.34
2023-12-31T04:13:47.413Z,4.39
2023-12-31T04:16:50.736Z,4.62
2023-12-31T04:19:54.005Z,4.46
2023-12-31T04:22:57.126Z,4.30
2023-12-31T04:26:00.362Z,4.31
2023-12-31T04:29:03.508Z,4.11
2023-12-31T04:32:07.083Z,4.31
2023-12-31T04:35:10.457Z,4.17
2023-12-31T04:38:13.783Z,3.73
2023-12-31T04:41:26.668Z,3.98
2023-12-31T04:44:29.970Z,4.12
2023-12-31T04:47:33.158Z,4.19
2023-12-31T04:50:36.563Z,4.03
2023-12-31T04:53:39.753Z,3.99
2023-12-31T04:56:43.069Z,4.08
2023-12-31T04:59:46.226Z,4.08
2023-12-31T05:02:49.410Z,3.78
2023-12-31T05:05:52.723Z,3.71
2023-12-31T05:08:56.373Z,3.62
2023-12-31T05:11:59.508Z,3.85
2023-12-31T05:15:02.709Z,3.80
2023-12-31T05:18:24.574Z,3.85
2023-12-31T05:21:46.332Z,3.76
2023-12-31T05:24:49.758Z,3.87
2023-12-31T05:28:11.538Z,3.65
2023-12-31T05:31:33.562Z,3.40
2023-12-31T05:34:54.856Z,3.53
2023-12-31T05:37:58.261Z,3.82
2023-12-31T05:41:38.450Z,3.63
2023-12-31T05:44:41.236Z,3.72
2023-12-31T05:47:47.026Z,3.58
2023-12-31T05:51:09.160Z,3.65
2023-12-31T05:54:30.854Z,3.49
2023-12-31T05:57:34.166Z,3.59
2023-12-31T06:00:37.614Z,3.53
2023-12-31T06:03:40.954Z,3.28
2023-12-31T06:06:44.204Z,3.05
2023-12-31T06:10:06.285Z,3.25
2023-12-31T06:13:09.439Z,3.31
2023-12-31T06:16:12.923Z,3.20
2023-12-31T06:19:16.175Z,3.23
2023-12-31T06:22:19.435Z,3.26
2023-12-31T06:25:40.853Z,3.31
2023-12-31T06:28:44.233Z,3.22
2023-12-31T06:32:06.139Z,3.29
2023-12-31T06:35:09.484Z,3.17
2023-12-31T06:38:12.771Z,3.21
2023-12-31T06:41:34.086Z,3.13
2023-12-31T06:44:55.594Z,3.13
2023-12-31T06:48:17.539Z,3.14
2023-12-31T06:51:39.419Z,3.02
2023-12-31T06:54:42.762Z,2.77
2023-12-31T06:58:04.180Z,2.92
2023-12-31T07:01:07.375Z,2.94
2023-12-31T07:04:10.852Z,2.81
2023-12-31T07:07:14.332Z,2.69
2023-12-31T07:10:17.516Z,2.72
2023-12-31T07:13:23.410Z,2.83
2023-12-31T07:16:27.828Z,2.91
2023-12-31T07:19:31.030Z,2.81
2023-12-31T07:22:34.380Z,2.93
2023-12-31T07:25:42.096Z,3.03
2023-12-31T07:29:10.066Z,2.67
2023-12-31T07:32:32.641Z,2.57
2023-12-31T07:35:37.043Z,2.67
2023-12-31T07:38:40.320Z,2.79
2023-12-31T07:42:01.790Z,2.75
2023-12-31T07:45:06.264Z,2.67
2023-12-31T07:48:09.549Z,2.89
2023-12-31T07:51:12.804Z,2.44
2023-12-31T07:54:15.936Z,2.56
2023-12-31T07:57:19.067Z,2.43
2023-12-31T08:00:24.093Z,2.46
2023-12-31T08:03:27.398Z,2.62
2023-12-31T08:06:30.923Z,2.59
2023-12-31T08:09:34.083Z,2.67
2023-12-31T08:12:39.297Z,2.63
2023-12-31T08:15:42.418Z,2.43
2023-12-31T08:18:45.722Z,2.23
2023-12-31T08:21:49.473Z,2.33
2023-12-31T08:24:52.867Z,2.43
2023-12-31T08:27:56.205Z,2.46
2023-12-31T08:30:59.445Z,2.48
2023-12-31T08:34:02.955Z,2.65
2023-12-31T08:37:06.224Z,2.45
2023-12-31T08:40:11.042Z,2.54
2023-12-31T08:43:14.493Z,2.34
2023-12-31T08:46:38.792Z,2.25
2023-12-31T08:49:42.097Z,2.28
2023-12-31T08:52:46.806Z,2.22
2023-12-31T08:56:08.576Z,2.28
2023-12-31T08:59:11.831Z,2.35
2023-12-31T09:02:17.128Z,2.32
2023-12-31T09:05:22.174Z,2.22
2023-12-31T09:08:25.498Z,1.95
2023-12-31T09:11:47.224Z,1.91
2023-12-31T09:14:50.420Z,2.10
2023-12-31T09:18:15.361Z,2.23
2023-12-31T09:21:18.923Z,1.87
2023-12-31T09:24:22.123Z,2.03
2023-12-31T09:27:43.933Z,1.97
2023-12-31T09:30:47.100Z,2.02
2023-12-31T09:34:08.912Z,2.08
2023-12-31T09:37:12.861Z,2.07
2023-12-31T09:40:17.820Z,2.03
2023-12-31T09:43:21.795Z,1.78
2023-12-31T09:46:28.078Z,1.83
2023-12-31T09:49:32.572Z,1.94
2023-12-31T09:52:35.962Z,2.09
2023-12-31T09:55:39.377Z,2.00
2023-12-31T09:58:44.735Z,1.77
2023-12-31T10:01:54.366Z,1.96
2023-12-31T10:04:59.785Z,2.02
2023-12-31T10:08:03.235Z,2.42
2023-12-31T10:11:25.183Z,2.07
2023-12-31T10:14:28.671Z,1.96
2023-12-31T10:17:35.000Z,1.77
2023-12-31T10:20:38.413Z,1.91
2023-12-31T10:23:41.840Z,1.57
2023-12-31T10:26:45.061Z,1.68
2023-12-31T10:30:06.557Z,1.90
2023-12-31T10:33:11.342Z,2.00
2023-12-31T10:36:34.647Z,1.82
2023-12-31T10:39:38.522Z,1.62
2023-12-31T10:42:41.890Z,1.69
2023-12-31T10:45:45.110Z,1.69
2023-12-31T10:49:06.812Z,1.77
2023-12-31T10:52:10.088Z,1.77
2023-12-31T10:55:13.774Z,1.44
2023-12-31T10:58:17.507Z,1.49
2023-12-31T11:01:20.856Z,1.41
2023-12-31T11:04:26.344Z,1.39
2023-12-31T11:07:48.808Z,1.33
2023-12-31T11:10:52.118Z,1.43
2023-12-31T11:14:14.014Z,1.52
2023-12-31T11:17:54.416Z,1.38
2023-12-31T11:21:24.570Z,1.61
2023-12-31T11:24:46.378Z,1.64
2023-12-31T11:27:55.251Z,1.60
2023-12-31T11:31:17.876Z,1.66
2023-12-31T11:34:21.158Z,1.59
2023-12-31T11:37:24.351Z,1.50
2023-12-31T11:40:45.785Z,1.40
2023-12-31T11:43:49.142Z,1.48
2023-12-31T11:47:23.371Z,1.50
2023-12-31T11:50:26.463Z,1.47
2023-12-31T11:53:51.587Z,1.43
2023-12-31T11:56:54.847Z,1.40
2023-12-31T12:00:16.052Z,1.47
2023-12-31T12:03:21.041Z,1.50
2023-12-31T12:06:25.739Z,1.57
2023-12-31T12:09:34.501Z,1.61
2023-12-31T12:12:39.886Z,1.29
2023-12-31T12:16:01.358Z,1.09
2023-12-31T12:19:04.592Z,0.92
2023-12-31T12:22:08.038Z,1.30
2023-12-31T12:25:11.319Z,1.43
2023-12-31T12:28:15.866Z,1.43
2023-12-31T12:31:39.094Z,1.39
2023-12-31T12:34:42.708Z,1.36
2023-12-31T12:37:47.939Z,1.49
2023-12-31T12:41:19.271Z,1.52
2023-12-31T12:44:24.257Z,1.51
2023-12-31T12:47:31.577Z,1.42
2023-12-31T12:50:34.926Z,1.43
2023-12-31T12:53:41.936Z,1.46
2023-12-31T12:56:46.165Z,1.36
2023-12-31T12:59:49.608Z,1.45
2023-12-31T13:02:53.109Z,1.61
2023-12-31T13:05:56.513Z,1.64
2023-12-31T13:09:00.116Z,1.64
2023-12-31T13:12:04.274Z,1.60
2023-12-31T13:15:07.786Z,1.56
2023-12-31T13:18:15.815Z,1.44
2023-12-31T13:21:19.125Z,1.16
2023-12-31T13:24:59.658Z,1.35
2023-12-31T13:28:02.880Z,1.47
2023-12-31T13:31:24.304Z,1.63
2023-12-31T13:34:27.523Z,1.62
2023-12-31T13:37:31.049Z,1.58
2023-12-31T13:40:53.171Z,1.43
2023-12-31T13:43:56.436Z,1.60
2023-12-31T13:46:59.740Z,1.92
2023-12-31T13:50:20.936Z,1.94
2023-12-31T13:53:24.190Z,1.96
2023-12-31T13:56:27.284Z,2.22
2023-12-31T13:59:30.536Z,2.18
2023-12-31T14:02:57.347Z,2.26
2023-12-31T14:06:07.495Z,2.33
2023-12-31T14:09:12.196Z,2.41
2023-12-31T14:12:21.012Z,2.59
2023-12-31T14:15:25.630Z,2.66
2023-12-31T14:18:28.934Z,2.88
2023-12-31T14:21:32.270Z,3.08
2023-12-31T14:24:57.021Z,3.22
2023-12-31T14:28:18.968Z,3.45
2023-12-31T14:31:22.223Z,3.62
2023-12-31T14:34:25.800Z,3.80
2023-12-31T14:37:29.385Z,3.98
2023-12-31T14:40:51.267Z,4.18
2023-12-31T14:43:54.546Z,4.35
2023-12-31T14:46:57.948Z,4.48
2023-12-31T14:50:19.859Z,4.75
2023-12-31T14:53:23.403Z,5.00
2023-12-31T14:56:27.984Z,5.65
2023-12-31T14:59:31.190Z,5.87
2023-12-31T15:02:34.476Z,6.17
2023-12-31T15:05:39.726Z,6.65
2023-12-31T15:08:42.970Z,6.54
2023-12-31T15:11:46.212Z,6.92
2023-12-31T15:14:49.584Z,6.75
2023-12-31T15:18:13.285Z,6.69
2023-12-31T15:21:35.087Z,7.02
2023-12-31T15:24:40.357Z,7.53
2023-12-31T15:27:43.533Z,7.54
2023-12-31T15:30:46.893Z,7.71
2023-12-31T15:34:08.865Z,8.02
2023-12-31T15:37:12.070Z,8.36
2023-12-31T15:40:15.215Z,8.45
2023-12-31T15:43:18.451Z,8.67
2023-12-31T15:46:58.555Z,8.88
2023-12-31T15:50:19.798Z,9.45
2023-12-31T15:53:41.771Z,9.63
2023-12-31T15:56:44.942Z,10.27
2023-12-31T16:00:25.052Z,10.56
2023-12-31T16:03:28.372Z,10.50
2023-12-31T16:06:31.677Z,10.68
2023-12-31T16:09:36.427Z,10.82
2023-12-31T16:12:57.891Z,11.07
2023-12-31T16:16:05.984Z,11.30
2023-12-31T16:19:28.406Z,11.59
2023-12-31T16:22:50.423Z,11.38
2023-12-31T16:26:12.298Z,11.56
2023-12-31T16:29:15.569Z,11.52
2023-12-31T16:32:37.001Z,11.72
2023-12-31T16:35:59.053Z,12.28
2023-12-31T16:39:20.868Z,11.97
2023-12-31T16:42:24.123Z,12.28
2023-12-31T16:45:46.061Z,12.48
2023-12-31T16:48:49.563Z,12.98
2023-12-31T16:52:10.928Z,13.10
2023-12-31T16:55:14.207Z,13.14
2023-12-31T16:58:17.450Z,13.49
2023-12-31T17:01:20.724Z,13.81
2023-12-31T17:04:24.040Z,14.00
2023-12-31T17:07:27.372Z,14.16
2023-12-31T17:10:30.811Z,14.41
2023-12-31T17:13:34.111Z,14.58
2023-12-31T17:16:37.393Z,14.69
2023-12-31T17:19:41.989Z,15.11
2023-12-31T17:22:45.520Z,15.23
2023-12-31T17:25:50.662Z,15.30
2023-12-31T17:28:54.134Z,15.42
2023-12-31T17:31:57.310Z,15.71
2023-12-31T17:35:20.138Z,15.79
2023-12-31T17:38:23.318Z,16.34
2023-12-31T17:41:26.423Z,16.90
2023-12-31T17:44:29.656Z,16.97
2023-12-31T17:47:32.908Z,17.20
2023-12-31T17:50:36.095Z,17.35
2023-12-31T17:53:39.312Z,17.22
2023-12-31T17:56:42.611Z,17.20
2023-12-31T17:59:45.768Z,17.01
2023-12-31T18:02:48.965Z,17.02
2023-12-31T18:05:52.164Z,17.22
2023-12-31T18:08:55.376Z,17.17
2023-12-31T18:11:58.550Z,17.32
2023-12-31T18:15:02.017Z,17.31
2023-12-31T18:18:08.348Z,17.43
2023-12-31T18:21:11.734Z,17.74
2023-12-31T18:24:15.011Z,18.41
2023-12-31T18:27:18.315Z,18.74
2023-12-31T18:30:26.241Z,19.00
2023-12-31T18:33:33.010Z,19.56
2023-12-31T18:36:54.872Z,19.17
2023-12-31T18:39:58.060Z,19.38
2023-12-31T18:43:01.424Z,19.66
2023-12-31T18:46:06.180Z,19.61
2023-12-31T18:49:09.904Z,19.46
2023-12-31T18:52:13.810Z,19.53
2023-12-31T18:55:35.501Z,19.87
2023-12-31T18:58:39.002Z,19.69
2023-12-31T19:01:42.418Z,19.36
2023-12-31T19:04:48.212Z,19.51
2023-12-31T19:07:51.998Z,19.93
2023-12-31T19:11:15.128Z,19.97
2023-12-31T19:14:19.674Z,19.99
2023-12-31T19:17:22.890Z,19.77
2023-12-31T19:20:26.345Z,19.23
2023-12-31T19:24:06.706Z,19.08
2023-12-31T19:27:09.876Z,18.99
2023-12-31T19:30:13.386Z,19.07
2023-12-31T19:33:16.854Z,19.19
2023-12-31T19:36:20.304Z,18.94
2023-12-31T19:39:23.470Z,19.39
2023-12-31T19:42:26.842Z,20.30
2023-12-31T19:45:49.880Z,20.86
2023-12-31T19:48:53.443Z,20.90
2023-12-31T19:52:17.699Z,20.78
2023-12-31T19:55:39.173Z,20.62
2023-12-31T19:58:42.602Z,20.20
2023-12-31T20:01:46.625Z,19.47
2023-12-31T20:04:50.497Z,19.40
2023-12-31T20:07:53.881Z,19.44
2023-12-31T20:10:57.326Z,19.72
2023-12-31T20:14:00.770Z,19.94
2023-12-31T20:17:04.399Z,19.85
2023-12-31T20:20:26.076Z,19.70
2023-12-31T20:23:29.428Z,19.39
2023-12-31T20:26:32.961Z,19.44
2023-12-31T20:29:40.272Z,19.75
2023-12-31T20:32:43.616Z,19.63
2023-12-31T20:35:47.148Z,19.71
2023-12-31T20:38:50.490Z,19.53
2023-12-31T20:41:53.877Z,19.71
2023-12-31T20:45:15.230Z,20.25
2023-12-31T20:48:20.007Z,20.53
2023-12-31T20:51:23.368Z,20.18
2023-12-31T20:54:45.234Z,20.29
2023-12-31T20:57:48.753Z,20.09
2023-12-31T21:01:10.752Z,20.20
2023-12-31T21:04:14.305Z,20.28
2023-12-31T21:07:35.741Z,20.95
2023-12-31T21:10:57.291Z,20.62
2023-12-31T21:14:01.928Z,20.65
2023-12-31T21:17:24.042Z,20.42
2023-12-31T21:20:27.226Z,20.14
2023-12-31T21:23:32.579Z,20.28
2023-12-31T21:26:36.553Z,20.43
2023-12-31T21:29:39.650Z,20.51
2023-12-31T21:33:01.812Z,20.58
2023-12-31T21:36:05.266Z,20.46
2023-12-31T21:39:45.690Z,20.57
2023-12-31T21:43:07.780Z,21.16
2023-12-31T21:46:37.590Z,19.87
2023-12-31T21:49:59.408Z,20.34
2023-12-31T21:53:02.755Z,20.30
2023-12-31T21:56:21.833Z,20.49
2023-12-31T21:59:30.093Z,20.28
2023-12-31T22:02:51.632Z,19.92
2023-12-31T22:06:12.990Z,20.19
2023-12-31T22:09:16.207Z,19.37
2023-12-31T22:12:19.519Z,18.93
2023-12-31T22:15:40.990Z,19.45
2023-12-31T22:19:02.772Z,19.49
2023-12-31T22:22:06.217Z,19.11
2023-12-31T22:25:09.860Z,19.31
2023-12-31T22:28:13.061Z,19.01
2023-12-31T22:31:16.450Z,18.78
2023-12-31T22:34:19.730Z,18.67
2023-12-31T22:37:25.960Z,18.47
2023-12-31T22:40:29.137Z,18.34
2023-12-31T22:43:32.891Z,18.09
2023-12-31T22:46:36.080Z,18.12
2023-12-31T22:49:57.305Z,18.01
2023-12-31T22:53:19.604Z,17.96
2023-12-31T22:56:41.150Z,17.64
2023-12-31T22:59:44.327Z,17.50
2023-12-31T23:02:47.500Z,17.27
2023-12-31T23:06:09.055Z,17.07
2023-12-31T23:09:30.466Z,16.88
2023-12-31T23:12:33.674Z,16.84
2023-12-31T23:15:37.086Z,16.57
2023-12-31T23:18:59.006Z,16.13
2023-12-31T23:22:02.268Z,15.98
2023-12-31T23:25:05.655Z,15.88
2023-12-31T23:28:08.863Z,15.66
2023-12-31T23:31:12.043Z,15.33
2023-12-31T23:34:16.135Z,15.32
2023-12-31T23:37:19.301Z,15.31
2023-12-31T23:40:22.616Z,15.21
2023-12-31T23:43:47.548Z,15.00
2023-12-31T23:46:56.011Z,14.79
2023-12-31T23:49:59.444Z,14.55
2023-12-31T23:53:02.735Z,14.29
2023-12-31T23:56:24.799Z,14.22
2023-12-31T23:59:27.994Z,14.29
